Big Bear Station Historical Data
Daily Summary for September 26, 2017 Units:  English    Metric   Both
« Previous Day
Next Day »
Daily Weekly Monthly Yearly Custom
  High: Low: Average:
Temperature: 62.8 °F 38.1 °F 48.4 °F
Dew Point: 31.2 °F 24.0 °F 27.8 °F
Humidity: 70 % 27 % 47 %
Wind Speed: 6.8 mph 0.0 mph 1.9 mph
Wind Gust: -999.0 mph - -
Wind:- - WSW
Pressure: 30.10 in 30.06 in -
Precipitation: 0.00 in    
Historical Graphs
 
 
Tabular Data for September 26, 2017
Time Temperature Dew Point Pressure Wind Wind Speed Wind Gust Humidity Rainfall Rate (Hourly)
00:02 39.0 °F 27.5 °F 30.10 in Calm   -999.0 mph 63 % 0 in
00:18 38.8 °F 27.7 °F 30.10 in Calm   -999.0 mph 64 % 0 in
00:33 40.1 °F 27.7 °F 30.09 in Calm   -999.0 mph 61 % 0 in
00:48 39.2 °F 27.3 °F 30.09 in Calm   -999.0 mph 62 % 0 in
01:03 39.7 °F 26.1 °F 30.09 in South 2.2 mph -999.0 mph 58 % 0 in
01:18 39.4 °F 25.4 °F 30.09 in South 2.2 mph -999.0 mph 57 % 0 in
01:34 39.4 °F 25.0 °F 30.08 in Calm   -999.0 mph 56 % 0 in
01:49 39.0 °F 25.5 °F 30.08 in Calm   -999.0 mph 58 % 0 in
02:04 39.0 °F 25.9 °F 30.08 in Calm   -999.0 mph 59 % 0 in
02:19 38.5 °F 27.8 °F 30.08 in Calm   -999.0 mph 65 % 0 in
02:35 38.7 °F 28.3 °F 30.07 in Calm   -999.0 mph 66 % 0 in
02:50 38.5 °F 28.9 °F 30.07 in Calm   -999.0 mph 68 % 0 in
03:05 38.3 °F 27.9 °F 30.07 in Calm   -999.0 mph 66 % 0 in
03:20 38.3 °F 27.2 °F 30.07 in Calm   -999.0 mph 64 % 0 in
03:36 38.7 °F 27.2 °F 30.07 in Calm   -999.0 mph 63 % 0 in
03:51 38.5 °F 26.6 °F 30.07 in Calm   -999.0 mph 62 % 0 in
04:06 38.5 °F 27.8 °F 30.06 in Calm   -999.0 mph 65 % 0 in
04:21 38.1 °F 27.4 °F 30.06 in SSE 3.2 mph -999.0 mph 65 % 0 in
04:36 38.5 °F 26.2 °F 30.06 in ESE 1.7 mph -999.0 mph 61 % 0 in
04:52 39.0 °F 27.9 °F 30.06 in Calm   -999.0 mph 64 % 0 in
05:23 40.3 °F 29.1 °F 30.07 in SSE 2.2 mph -999.0 mph 64 % 0 in
05:38 40.1 °F 29.7 °F 30.07 in South 3.2 mph -999.0 mph 66 % 0 in
05:53 39.9 °F 29.1 °F 30.07 in SSE 2.2 mph -999.0 mph 65 % 0 in
06:08 39.9 °F 27.9 °F 30.07 in South 1.7 mph -999.0 mph 62 % 0 in
06:24 39.7 °F 29.3 °F 30.07 in South 2.7 mph -999.0 mph 66 % 0 in
06:39 39.9 °F 29.5 °F 30.07 in SSE 1.7 mph -999.0 mph 66 % 0 in
06:54 39.4 °F 30.1 °F 30.07 in South 1.7 mph -999.0 mph 69 % 0 in
07:09 39.4 °F 30.4 °F 30.08 in Calm   -999.0 mph 70 % 0 in
07:25 39.9 °F 29.8 °F 30.08 in SSE 2.2 mph -999.0 mph 67 % 0 in
07:40 39.7 °F 30.0 °F 30.08 in South 2.2 mph -999.0 mph 68 % 0 in
07:55 39.9 °F 29.8 °F 30.08 in Calm   -999.0 mph 67 % 0 in
08:11 41.2 °F 29.6 °F 30.08 in Calm   -999.0 mph 63 % 0 in
08:26 42.3 °F 27.7 °F 30.09 in Calm   -999.0 mph 56 % 0 in
08:41 44.1 °F 27.6 °F 30.08 in ENE 1.7 mph -999.0 mph 52 % 0 in
08:56 45.1 °F 26.6 °F 30.09 in Calm   -999.0 mph 48 % 0 in
09:11 47.3 °F 26.5 °F 30.09 in Calm   -999.0 mph 44 % 0 in
09:27 49.8 °F 27.0 °F 30.09 in Calm   -999.0 mph 41 % 0 in
09:42 51.8 °F 28.2 °F 30.09 in SSE 1.7 mph -999.0 mph 40 % 0 in
09:57 53.1 °F 28.1 °F 30.09 in NW 4.2 mph -999.0 mph 38 % 0 in
10:12 53.6 °F 27.3 °F 30.10 in NW 6.3 mph -999.0 mph 36 % 0 in
10:28 54.5 °F 28.7 °F 30.10 in NNE 4.2 mph -999.0 mph 37 % 0 in
10:43 56.1 °F 30.2 °F 30.10 in NNW 4.7 mph -999.0 mph 37 % 0 in
10:58 57.9 °F 28.2 °F 30.10 in West 3.7 mph -999.0 mph 32 % 0 in
11:13 58.8 °F 27.4 °F 30.10 in NNE 2.2 mph -999.0 mph 30 % 0 in
11:28 59.9 °F 28.4 °F 30.10 in NNW 6.3 mph -999.0 mph 30 % 0 in
11:44 59.5 °F 28.8 °F 30.09 in NW 3.7 mph -999.0 mph 31 % 0 in
11:59 60.1 °F 28.5 °F 30.10 in NW 4.7 mph -999.0 mph 30 % 0 in
12:15 59.9 °F 30.0 °F 30.10 in North 4.2 mph -999.0 mph 32 % 0 in
12:30 60.4 °F 29.6 °F 30.10 in WNW 6.8 mph -999.0 mph 31 % 0 in
12:45 61.7 °F 29.9 °F 30.10 in NW 2.7 mph -999.0 mph 30 % 0 in
13:00 61.7 °F 29.9 °F 30.09 in NNE 4.2 mph -999.0 mph 30 % 0 in
13:15 61.2 °F 29.5 °F 30.09 in WNW 5.8 mph -999.0 mph 30 % 0 in
13:31 61.7 °F 29.9 °F 30.09 in NNW 5.8 mph -999.0 mph 30 % 0 in
13:46 61.7 °F 28.2 °F 30.08 in NNW 5.8 mph -999.0 mph 28 % 0 in
14:01 61.9 °F 29.3 °F 30.08 in NNW 4.7 mph -999.0 mph 29 % 0 in
14:17 60.8 °F 28.3 °F 30.07 in North 3.2 mph -999.0 mph 29 % 0 in
14:32 62.1 °F 28.6 °F 30.07 in ESE 1.1 mph -999.0 mph 28 % 0 in
14:47 61.7 °F 27.4 °F 30.07 in NW 2.7 mph -999.0 mph 27 % 0 in
15:02 60.8 °F 27.5 °F 30.07 in NNW 3.2 mph -999.0 mph 28 % 0 in
15:18 62.8 °F 29.2 °F 30.07 in NNW 4.2 mph -999.0 mph 28 % 0 in
15:33 61.0 °F 29.3 °F 30.07 in NE 4.2 mph -999.0 mph 30 % 0 in
15:48 60.4 °F 29.6 °F 30.07 in NW 3.2 mph -999.0 mph 31 % 0 in
16:03 60.6 °F 28.2 °F 30.06 in NNW 4.2 mph -999.0 mph 29 % 0 in
16:19 59.7 °F 30.5 °F 30.07 in WNW 5.3 mph -999.0 mph 33 % 0 in
16:34 58.8 °F 30.5 °F 30.07 in NW 5.3 mph -999.0 mph 34 % 0 in
16:49 58.1 °F 30.6 °F 30.07 in NNW 3.7 mph -999.0 mph 35 % 0 in
17:05 57.7 °F 29.5 °F 30.07 in NNW 4.7 mph -999.0 mph 34 % 0 in
17:20 58.3 °F 29.3 °F 30.07 in NW 2.7 mph -999.0 mph 33 % 0 in
17:35 57.2 °F 31.2 °F 30.07 in NNW 4.7 mph -999.0 mph 37 % 0 in
17:50 56.7 °F 28.6 °F 30.08 in WNW 4.2 mph -999.0 mph 34 % 0 in
18:05 55.6 °F 29.1 °F 30.08 in NW 3.2 mph -999.0 mph 36 % 0 in
18:21 55.0 °F 27.1 °F 30.08 in North 4.2 mph -999.0 mph 34 % 0 in
18:36 54.1 °F 26.3 °F 30.08 in NW 2.2 mph -999.0 mph 34 % 0 in
18:51 53.2 °F 26.2 °F 30.08 in NNW 2.2 mph -999.0 mph 35 % 0 in
19:06 52.3 °F 26.1 °F 30.09 in Calm   -999.0 mph 36 % 0 in
19:21 51.3 °F 25.2 °F 30.09 in Calm   -999.0 mph 36 % 0 in
19:37 49.8 °F 24.6 °F 30.10 in SSE 1.1 mph -999.0 mph 37 % 0 in
19:52 48.7 °F 24.8 °F 30.10 in Calm   -999.0 mph 39 % 0 in
20:07 47.8 °F 24.0 °F 30.10 in Calm   -999.0 mph 39 % 0 in
20:22 47.3 °F 24.2 °F 30.10 in Calm   -999.0 mph 40 % 0 in
20:37 46.6 °F 25.3 °F 30.10 in Calm   -999.0 mph 43 % 0 in
20:53 45.9 °F 25.7 °F 30.10 in Calm   -999.0 mph 45 % 0 in
21:08 45.1 °F 25.0 °F 30.08 in Calm   -999.0 mph 45 % 0 in
21:23 44.2 °F 24.2 °F 30.08 in Calm   -999.0 mph 45 % 0 in
21:38 43.5 °F 24.1 °F 30.08 in Calm   -999.0 mph 46 % 0 in
21:53 43.2 °F 25.3 °F 30.08 in Calm   -999.0 mph 49 % 0 in
22:09 42.6 °F 26.2 °F 30.08 in Calm   -999.0 mph 52 % 0 in
22:25 42.1 °F 27.5 °F 30.08 in Calm   -999.0 mph 56 % 0 in
22:40 41.5 °F 27.4 °F 30.08 in Calm   -999.0 mph 57 % 0 in
22:55 40.8 °F 26.3 °F 30.08 in Calm   -999.0 mph 56 % 0 in
23:10 40.3 °F 26.3 °F 30.08 in Calm   -999.0 mph 57 % 0 in
23:25 39.9 °F 27.1 °F 30.08 in South 1.1 mph -999.0 mph 60 % 0 in
23:41 39.6 °F 27.6 °F 30.09 in Calm   -999.0 mph 62 % 0 in
23:56 39.0 °F 27.9 °F 30.08 in Calm   -999.0 mph 64 % 0 in
Big Bear CA Weather
Compliments of Weather Underground - 1.5 mb